Time;durP1;ratioP1;P1;durP2;ratioP2;P2;SDS_P1;SDS_P2;PMS_P1;PMS_P2;Temp;Humidity;BMP_temperature;BMP_pressure;BME280_temperature;BME280_humidity;BME280_pressure;Samples;Min_cycle;Max_cycle;Signal;HPM_P1;HPM_P2
2022/06/23 00:01:57;;;;;;;6.95;3.00;;;;;;;20.33;100.00;98662.06;5113896;28;20199;-81
2022/06/23 00:04:28;;;;;;;3.90;2.70;;;;;;;20.34;100.00;98655.66;5112800;27;20223;-80
2022/06/23 00:06:59;;;;;;;5.30;3.27;;;;;;;20.34;100.00;98658.34;5110006;28;20654;-79
2022/06/23 00:09:39;;;;;;;5.78;3.33;;;;;;;20.34;100.00;98657.50;5114118;28;20226;-80
2022/06/23 00:12:24;;;;;;;6.88;3.45;;;;;;;20.22;100.00;98651.66;5116478;28;20187;-79
2022/06/23 00:14:57;;;;;;;4.87;3.10;;;;;;;20.19;100.00;98655.53;5114250;27;20241;-79
2022/06/23 00:17:31;;;;;;;4.60;3.08;;;;;;;20.10;100.00;98655.72;5115795;28;20191;-80
2022/06/23 00:20:03;;;;;;;4.28;2.83;;;;;;;19.88;100.00;98660.81;5116150;28;20191;-80
2022/06/23 00:22:33;;;;;;;4.68;3.13;;;;;;;19.42;100.00;98657.75;5114553;28;20646;-79
2022/06/23 00:25:07;;;;;;;4.38;3.10;;;;;;;19.75;100.00;98665.84;5114929;28;20218;-79
2022/06/23 00:27:39;;;;;;;3.60;2.83;;;;;;;19.63;100.00;98659.13;5083037;28;20237;-80
2022/06/23 00:30:21;;;;;;;5.95;3.35;;;;;;;19.27;100.00;98659.41;5115362;28;20197;-80
2022/06/23 00:32:51;;;;;;;3.27;2.63;;;;;;;19.09;100.00;98664.06;5116616;27;20234;-80
2022/06/23 00:35:22;;;;;;;5.63;2.90;;;;;;;19.16;100.00;98665.94;5116267;28;20198;-79
2022/06/23 00:37:52;;;;;;;4.70;3.10;;;;;;;19.09;100.00;98666.75;5111175;28;20253;-79
2022/06/23 00:40:24;;;;;;;9.10;3.13;;;;;;;19.07;100.00;98666.06;5113294;28;20207;-79
2022/06/23 00:42:55;;;;;;;5.20;2.93;;;;;;;19.42;100.00;98664.97;5116309;28;20199;-80
2022/06/23 00:45:31;;;;;;;4.13;2.73;;;;;;;19.53;100.00;98653.06;5114080;28;20215;-79
2022/06/23 00:48:08;;;;;;;4.53;2.83;;;;;;;19.53;100.00;98640.47;5113931;28;20198;-80
2022/06/23 00:50:40;;;;;;;4.00;2.90;;;;;;;19.42;100.00;98640.81;5115591;28;20240;-80
2022/06/23 00:53:19;;;;;;;5.27;2.50;;;;;;;19.45;100.00;98640.44;5113277;28;20203;-79
2022/06/23 00:55:57;;;;;;;7.00;3.15;;;;;;;19.50;100.00;98640.81;5112232;28;20213;-79
2022/06/23 00:58:33;;;;;;;4.07;3.10;;;;;;;19.25;100.00;98653.38;5049610;28;20225;-79
2022/06/23 01:01:13;;;;;;;4.20;3.10;;;;;;;19.16;100.00;98662.41;5051991;28;20272;-79
2022/06/23 01:03:51;;;;;;;3.63;2.80;;;;;;;19.06;100.00;98659.88;5048744;28;20292;-79
2022/06/23 01:06:28;;;;;;;5.43;3.40;;;;;;;18.74;100.00;98662.47;5047944;28;20232;-79
2022/06/23 01:09:03;;;;;;;5.70;3.20;;;;;;;18.63;100.00;98673.47;5045790;28;20193;-80
2022/06/23 01:11:39;;;;;;;4.77;3.23;;;;;;;18.67;100.00;98672.16;5048987;28;20197;-79
2022/06/23 01:14:19;;;;;;;5.73;3.13;;;;;;;18.08;100.00;98680.03;5048161;28;20232;-79
2022/06/23 01:16:51;;;;;;;4.63;3.47;;;;;;;18.15;100.00;98675.72;5048255;28;20200;-80
2022/06/23 01:19:47;;;;;;;5.00;3.40;;;;;;;18.00;100.00;98675.44;4997607;28;20722;-79
2022/06/23 01:22:25;;;;;;;4.37;3.30;;;;;;;18.23;100.00;98672.22;5051346;28;20598;-79
2022/06/23 01:25:02;;;;;;;4.13;3.10;;;;;;;18.17;100.00;98665.69;5050799;28;20209;-80
2022/06/23 01:28:04;;;;;;;4.40;3.03;;;;;;;18.58;100.00;98664.03;5050020;28;20185;-80
2022/06/23 01:30:38;;;;;;;5.77;3.60;;;;;;;18.08;100.00;98666.63;5100612;28;20282;-80
2022/06/23 01:33:23;;;;;;;7.87;3.60;;;;;;;18.32;100.00;98663.22;5116237;27;20198;-80
2022/06/23 01:36:00;;;;;;;6.27;4.07;;;;;;;18.49;100.00;98666.84;5110818;28;20202;-80
2022/06/23 01:38:39;;;;;;;5.77;4.23;;;;;;;18.51;100.00;98652.25;5112462;28;20203;-79
2022/06/23 01:41:19;;;;;;;5.57;3.63;;;;;;;18.38;100.00;98643.84;5114975;28;20197;-79
2022/06/23 01:43:59;;;;;;;6.13;3.63;;;;;;;18.38;100.00;98653.72;5115105;28;20183;-79
2022/06/23 01:46:35;;;;;;;5.50;3.50;;;;;;;18.10;100.00;98653.06;5113435;28;20215;-79
2022/06/23 01:49:09;;;;;;;9.27;3.70;;;;;;;17.91;100.00;98646.06;5106676;28;20199;-80
2022/06/23 01:51:42;;;;;;;5.50;3.50;;;;;;;18.06;100.00;98643.66;5110427;28;20293;-79
2022/06/23 01:54:13;;;;;;;5.27;3.33;;;;;;;18.24;100.00;98637.25;5114745;28;20236;-80
2022/06/23 01:56:51;;;;;;;5.47;3.50;;;;;;;18.28;100.00;98635.06;5114647;28;20187;-79
2022/06/23 01:59:47;;;;;;;5.87;3.80;;;;;;;18.27;100.00;98638.75;5094475;28;20222;-79
2022/06/23 02:02:48;;;;;;;6.97;3.23;;;;;;;18.12;100.00;98643.84;5040646;28;20196;-78
2022/06/23 02:05:29;;;;;;;4.13;3.50;;;;;;;17.88;100.00;98647.22;5083692;28;20199;-79
2022/06/23 02:08:04;;;;;;;4.10;3.40;;;;;;;18.02;100.00;98643.97;5089080;28;20187;-79
2022/06/23 02:10:40;;;;;;;6.03;3.60;;;;;;;17.78;100.00;98651.00;5091609;28;20210;-80
2022/06/23 02:13:18;;;;;;;6.57;3.67;;;;;;;17.72;100.00;98650.63;5087227;28;20255;-80
2022/06/23 02:15:56;;;;;;;5.90;3.53;;;;;;;17.62;100.00;98652.53;5083298;28;20187;-79
2022/06/23 02:18:32;;;;;;;7.53;3.67;;;;;;;17.83;100.00;98652.22;5065537;28;20291;-79
2022/06/23 02:21:20;;;;;;;4.87;3.33;;;;;;;17.88;100.00;98649.91;5064338;28;20203;-80
2022/06/23 02:23:55;;;;;;;6.97;3.67;;;;;;;17.75;100.00;98638.75;5029099;28;20206;-80
2022/06/23 02:26:29;;;;;;;6.60;3.47;;;;;;;17.72;100.00;98649.78;5027971;28;20220;-79
2022/06/23 02:29:03;;;;;;;5.67;3.50;;;;;;;17.77;100.00;98652.84;5030854;28;20648;-79
2022/06/23 02:31:39;;;;;;;6.07;3.70;;;;;;;17.69;100.00;98645.59;5027637;28;20229;-79
2022/06/23 02:34:16;;;;;;;6.87;4.20;;;;;;;17.37;100.00;98650.63;5028212;28;20193;-80
2022/06/23 02:37:06;;;;;;;5.17;3.80;;;;;;;17.23;100.00;98662.72;5064589;28;20282;-80
2022/06/23 02:39:43;;;;;;;7.37;3.90;;;;;;;17.35;100.00;98658.81;5091635;28;20195;-79
2022/06/23 02:42:24;;;;;;;8.80;3.80;;;;;;;17.46;100.00;98658.56;5087939;28;20745;-79
2022/06/23 02:45:15;;;;;;;7.20;4.30;;;;;;;17.04;100.00;98661.03;5088707;28;20256;-80
2022/06/23 02:48:02;;;;;;;9.47;3.90;;;;;;;17.23;100.00;98660.03;5087892;28;20218;-80
2022/06/23 02:50:53;;;;;;;7.27;4.00;;;;;;;17.47;100.00;98654.09;5122466;27;20190;-79
2022/06/23 02:54:06;;;;;;;8.70;4.10;;;;;;;17.51;100.00;98647.41;5112403;28;20461;-79
2022/06/23 02:57:03;;;;;;;5.90;3.70;;;;;;;17.66;100.00;98653.91;5093894;28;20203;-79
2022/06/23 02:59:40;;;;;;;5.57;3.80;;;;;;;17.47;100.00;98648.72;5113656;28;20234;-80
2022/06/23 03:02:15;;;;;;;7.47;3.83;;;;;;;17.16;100.00;98673.19;5117253;27;20187;-79
2022/06/23 03:04:51;;;;;;;5.83;3.47;;;;;;;17.08;100.00;98675.81;5113774;27;20196;-79
2022/06/23 03:07:26;;;;;;;4.77;3.53;;;;;;;17.02;100.00;98678.22;5112128;28;20218;-79
2022/06/23 03:10:05;;;;;;;6.53;3.93;;;;;;;17.15;100.00;98670.66;5113382;28;20197;-79
2022/06/23 03:12:43;;;;;;;6.27;3.67;;;;;;;17.15;100.00;98663.47;5109498;28;20663;-79
2022/06/23 03:15:18;;;;;;;7.27;4.20;;;;;;;17.52;100.00;98665.16;5104854;28;20217;-79
2022/06/23 03:17:53;;;;;;;5.20;3.83;;;;;;;17.41;100.00;98668.09;5115074;27;20194;-79
2022/06/23 03:20:34;;;;;;;9.53;3.73;;;;;;;17.36;100.00;98670.38;5110915;28;20205;-79
2022/06/23 03:23:10;;;;;;;6.50;3.70;;;;;;;17.16;100.00;98681.22;5113210;28;20195;-79
2022/06/23 03:25:46;;;;;;;6.73;4.00;;;;;;;17.06;100.00;98677.75;5111879;27;20187;-80
2022/06/23 03:28:21;;;;;;;4.20;3.50;;;;;;;17.28;100.00;98684.53;5113157;28;20199;-80
2022/06/23 03:30:55;;;;;;;7.20;3.73;;;;;;;17.53;100.00;98684.75;5112555;28;20552;-79
2022/06/23 03:33:35;;;;;;;7.33;3.87;;;;;;;17.60;100.00;98699.22;5110638;28;20274;-79
2022/06/23 03:36:13;;;;;;;6.20;3.77;;;;;;;17.56;100.00;98693.31;5113895;28;20199;-80
2022/06/23 03:41:40;;;;;;;6.07;3.97;;;;;;;17.29;100.00;98709.47;5115695;28;20202;-79
2022/06/23 03:44:18;;;;;;;8.03;3.33;;;;;;;17.27;100.00;98704.25;5117346;28;20183;-79
2022/06/23 03:46:55;;;;;;;5.13;3.60;;;;;;;16.88;100.00;98711.66;5111959;28;20214;-79
2022/06/23 03:49:44;;;;;;;5.43;3.47;;;;;;;17.01;100.00;98696.13;5116975;28;20193;-80
2022/06/23 03:52:22;;;;;;;6.97;3.53;;;;;;;17.00;100.00;98701.63;5116984;28;20205;-79
2022/06/23 03:54:56;;;;;;;6.07;3.90;;;;;;;16.96;100.00;98706.41;5117025;28;20194;-79
2022/06/23 03:57:28;;;;;;;6.53;3.60;;;;;;;17.22;100.00;98708.38;5109576;28;20198;-79
2022/06/23 04:00:20;;;;;;;8.10;3.77;;;;;;;17.40;100.00;98711.91;5115934;28;20650;-79
2022/06/23 04:02:53;;;;;;;4.03;3.60;;;;;;;17.56;100.00;98706.69;5115277;28;20191;-79
2022/06/23 04:05:27;;;;;;;6.87;3.63;;;;;;;17.58;100.00;98709.25;5116720;28;20232;-80
2022/06/23 04:07:59;;;;;;;5.90;3.80;;;;;;;17.58;100.00;98715.44;5111119;28;20242;-80
2022/06/23 04:10:31;;;;;;;7.50;3.47;;;;;;;17.42;100.00;98718.78;5116631;28;20198;-79
2022/06/23 04:13:17;;;;;;;6.13;3.67;;;;;;;17.57;100.00;98713.75;5114566;28;20229;-79
2022/06/23 04:15:49;;;;;;;6.43;3.97;;;;;;;17.61;100.00;98720.47;5116682;27;20202;-79
2022/06/23 04:18:24;;;;;;;9.67;4.10;;;;;;;17.55;100.00;98730.97;5120087;27;20195;-79
2022/06/23 04:20:56;;;;;;;7.37;3.67;;;;;;;17.44;100.00;98732.88;5116383;27;20202;-79
2022/06/23 04:23:31;;;;;;;5.77;4.07;;;;;;;17.22;100.00;98730.63;5121714;27;20613;-79
2022/06/23 04:26:06;;;;;;;5.87;3.33;;;;;;;17.34;100.00;98733.94;5110486;28;20224;-79
2022/06/23 04:28:42;;;;;;;5.93;3.67;;;;;;;17.65;100.00;98732.56;5115763;28;20225;-79
2022/06/23 04:31:17;;;;;;;4.50;3.30;;;;;;;17.68;100.00;98729.59;5113836;28;20186;-79
2022/06/23 04:33:48;;;;;;;3.53;3.10;;;;;;;17.82;100.00;98727.38;5116055;28;20195;-79
2022/06/23 04:36:22;;;;;;;6.37;3.30;;;;;;;17.86;100.00;98718.91;5116244;27;20194;-79
2022/06/23 04:38:54;;;;;;;6.33;3.63;;;;;;;17.99;100.00;98727.38;5116009;28;20219;-79
2022/06/23 04:41:27;;;;;;;4.53;3.67;;;;;;;18.17;100.00;98729.19;5117424;27;20209;-79
2022/06/23 04:44:02;;;;;;;5.73;3.60;;;;;;;18.27;100.00;98735.28;5111879;28;20195;-79
2022/06/23 04:46:38;;;;;;;5.70;4.23;;;;;;;17.98;100.00;98727.53;5112647;28;20187;-80
2022/06/23 04:49:22;;;;;;;5.63;3.63;;;;;;;17.97;100.00;98732.06;5113108;28;20198;-79
2022/06/23 04:51:54;;;;;;;5.03;3.50;;;;;;;18.17;100.00;98731.84;5116934;27;20199;-79
2022/06/23 04:54:28;;;;;;;5.53;4.23;;;;;;;18.25;100.00;98738.13;5113270;28;20197;-79
2022/06/23 04:57:05;;;;;;;7.73;4.00;;;;;;;18.20;100.00;98734.22;5115760;28;20206;-79
2022/06/23 04:59:38;;;;;;;7.77;3.57;;;;;;;18.31;100.00;98733.94;5117735;27;20222;-79
2022/06/23 05:02:28;;;;;;;6.07;3.40;;;;;;;18.51;100.00;98743.47;5118468;27;20198;-80
2022/06/23 05:05:03;;;;;;;4.97;3.70;;;;;;;18.48;100.00;98759.03;5112823;28;20206;-80
2022/06/23 05:07:45;;;;;;;5.33;3.57;;;;;;;18.46;100.00;98753.00;5112896;28;20218;-80
2022/06/23 05:10:19;;;;;;;8.40;3.40;;;;;;;18.52;100.00;98750.50;5111996;28;20228;-80
2022/06/23 05:12:52;;;;;;;5.37;3.17;;;;;;;18.45;100.00;98762.03;5114208;27;20194;-80
2022/06/23 05:15:26;;;;;;;7.17;3.50;;;;;;;18.69;100.00;98759.53;5114168;28;20193;-79
2022/06/23 05:18:00;;;;;;;5.77;3.43;;;;;;;18.75;100.00;98761.59;5115493;28;20190;-79
2022/06/23 05:20:33;;;;;;;4.17;3.30;;;;;;;18.79;100.00;98764.78;5115077;28;20195;-79
2022/06/23 05:23:03;;;;;;;5.97;3.33;;;;;;;18.82;100.00;98768.00;5116690;27;20202;-80
2022/06/23 05:25:43;;;;;;;5.27;3.67;;;;;;;18.66;100.00;98773.28;5115006;28;20649;-80
2022/06/23 05:28:19;;;;;;;5.53;3.60;;;;;;;18.68;100.00;98776.63;5111883;28;20244;-80
2022/06/23 05:30:52;;;;;;;5.47;3.20;;;;;;;18.67;100.00;98772.25;5113523;28;20187;-79
2022/06/23 05:33:26;;;;;;;6.13;3.33;;;;;;;18.79;100.00;98764.78;5109530;28;20203;-79
2022/06/23 05:35:59;;;;;;;4.87;3.10;;;;;;;19.13;100.00;98762.09;5114740;28;20274;-79
2022/06/23 05:38:34;;;;;;;3.50;3.03;;;;;;;19.18;100.00;98757.06;5112370;28;20195;-80
2022/06/23 05:41:13;;;;;;;5.17;3.17;;;;;;;19.37;100.00;98747.88;5115019;28;20666;-80
2022/06/23 05:43:43;;;;;;;4.20;3.13;;;;;;;19.47;100.00;98748.56;5114536;28;20233;-79
2022/06/23 05:46:18;;;;;;;6.17;3.40;;;;;;;19.54;100.00;98748.75;5110598;28;20206;-80
2022/06/23 05:48:57;;;;;;;3.70;3.00;;;;;;;19.82;100.00;98747.50;5109900;28;20214;-80
2022/06/23 05:51:34;;;;;;;5.00;3.17;;;;;;;19.84;100.00;98747.31;5114532;28;20274;-80
2022/06/23 05:54:09;;;;;;;5.60;3.27;;;;;;;19.83;100.00;98759.09;5116982;27;20271;-80
2022/06/23 05:56:44;;;;;;;7.27;3.63;;;;;;;19.89;100.00;98755.72;5108496;28;20202;-80
2022/06/23 05:59:20;;;;;;;5.40;3.20;;;;;;;20.12;100.00;98769.34;5107164;28;20238;-80
2022/06/23 06:01:56;;;;;;;4.50;3.10;;;;;;;20.21;100.00;98763.78;5113010;28;20187;-80
2022/06/23 06:04:31;;;;;;;5.80;3.30;;;;;;;20.32;100.00;98759.06;5118560;27;20303;-79
2022/06/23 06:07:00;;;;;;;4.80;2.90;;;;;;;20.47;100.00;98758.25;5106969;28;20206;-80
2022/06/23 06:09:40;;;;;;;5.07;3.07;;;;;;;20.64;100.00;98759.03;5114172;28;20234;-80
2022/06/23 06:12:14;;;;;;;4.37;2.93;;;;;;;20.79;100.00;98759.16;5114498;28;20219;-80
2022/06/23 06:14:46;;;;;;;8.23;3.40;;;;;;;20.77;100.00;98755.81;5114439;28;20351;-80
2022/06/23 06:17:20;;;;;;;7.03;3.50;;;;;;;20.90;100.00;98764.19;5114224;28;20201;-80
2022/06/23 06:19:52;;;;;;;6.72;3.55;;;;;;;20.92;100.00;98758.63;5114432;28;20199;-79
2022/06/23 06:22:36;;;;;;;6.60;3.53;;;;;;;21.12;100.00;98759.88;5114383;28;20206;-80
2022/06/23 06:25:07;;;;;;;5.28;3.30;;;;;;;21.13;100.00;98758.84;5111280;28;20199;-80
2022/06/23 06:27:37;;;;;;;7.87;3.83;;;;;;;21.41;100.00;98765.47;5114360;28;20198;-80
2022/06/23 06:30:06;;;;;;;9.43;4.57;;;;;;;21.39;100.00;98758.59;5113276;28;20226;-80
2022/06/23 06:32:39;;;;;;;9.17;5.50;;;;;;;21.23;100.00;98753.25;5096145;28;20198;-80
2022/06/23 06:35:20;;;;;;;8.30;6.10;;;;;;;21.43;100.00;98755.38;5047238;28;20205;-80
2022/06/23 06:37:51;;;;;;;9.07;5.25;;;;;;;21.45;100.00;98757.91;5049090;28;20228;-80
2022/06/23 06:40:20;;;;;;;12.02;5.10;;;;;;;21.58;100.00;98762.69;5051228;28;20225;-80
2022/06/23 06:42:57;;;;;;;10.60;6.85;;;;;;;21.85;100.00;98759.50;5048385;28;20197;-80
2022/06/23 06:45:34;;;;;;;8.05;5.47;;;;;;;21.82;100.00;98761.72;5050115;28;20193;-80
2022/06/23 06:48:03;;;;;;;12.67;6.73;;;;;;;21.86;100.00;98766.56;5046982;28;20212;-80
2022/06/23 06:50:40;;;;;;;11.48;6.68;;;;;;;21.68;100.00;98764.16;5044241;28;20280;-80
2022/06/23 06:53:22;;;;;;;11.10;6.90;;;;;;;21.93;100.00;98758.59;5076873;28;20287;-80
2022/06/23 06:55:54;;;;;;;10.10;6.05;;;;;;;22.07;100.00;98762.38;5117651;27;20202;-80
2022/06/23 06:58:28;;;;;;;11.32;6.22;;;;;;;22.10;100.00;98749.38;5113576;28;20273;-80
2022/06/23 07:01:00;;;;;;;10.70;6.20;;;;;;;21.87;100.00;98757.44;5115346;27;20187;-80
2022/06/23 07:03:29;;;;;;;9.68;5.90;;;;;;;22.18;100.00;98754.69;5113904;28;20207;-80
2022/06/23 07:06:06;;;;;;;9.27;5.53;;;;;;;22.25;100.00;98758.34;5113782;28;20199;-80
2022/06/23 07:08:40;;;;;;;7.75;5.60;;;;;;;22.34;100.00;98763.66;5113776;28;20214;-80
2022/06/23 07:11:16;;;;;;;10.30;5.70;;;;;;;22.60;100.00;98765.94;5108523;28;20199;-81
2022/06/23 07:13:58;;;;;;;9.27;5.60;;;;;;;22.78;100.00;98755.63;5113822;28;20199;-80
2022/06/23 07:16:31;;;;;;;8.05;4.53;;;;;;;23.08;100.00;98753.78;5116241;28;20199;-80
2022/06/23 07:19:06;;;;;;;8.88;4.65;;;;;;;23.22;100.00;98752.91;5117729;28;20240;-80
2022/06/23 07:21:41;;;;;;;8.95;4.78;;;;;;;23.16;100.00;98761.75;5113167;28;20195;-80
2022/06/23 07:24:16;;;;;;;8.80;5.30;;;;;;;22.85;100.00;98752.00;5117534;28;20198;-80
2022/06/23 07:26:50;;;;;;;8.57;4.63;;;;;;;22.97;100.00;98751.53;5117576;28;20199;-80
2022/06/23 07:29:34;;;;;;;7.00;4.15;;;;;;;23.25;100.00;98752.53;5116840;27;20214;-80
2022/06/23 07:32:19;;;;;;;6.72;4.13;;;;;;;23.47;100.00;98748.03;5110776;28;20201;-80
2022/06/23 07:34:53;;;;;;;8.43;4.30;;;;;;;23.52;100.00;98750.97;5114704;28;20282;-80
2022/06/23 07:37:29;;;;;;;8.00;4.13;;;;;;;23.65;100.00;98745.75;5116744;27;20193;-80
2022/06/23 07:40:01;;;;;;;6.38;4.43;;;;;;;23.75;100.00;98744.59;5114449;28;20190;-80
2022/06/23 07:43:05;;;;;;;7.35;4.47;;;;;;;23.86;100.00;98741.38;5115946;28;20233;-80
2022/06/23 07:45:41;;;;;;;7.20;4.57;;;;;;;23.89;100.00;98733.72;5117579;27;20247;-80
2022/06/23 07:48:10;;;;;;;7.63;4.22;;;;;;;23.94;100.00;98725.88;5120599;27;20607;-80
2022/06/23 07:50:38;;;;;;;8.13;4.45;;;;;;;23.88;100.00;98732.03;5098492;28;20206;-80
2022/06/23 07:53:16;;;;;;;6.70;4.45;;;;;;;23.99;100.00;98734.22;5113358;28;20230;-80
2022/06/23 07:55:48;;;;;;;7.25;4.20;;;;;;;24.17;100.00;98728.34;5114055;28;20251;-80
2022/06/23 07:58:20;;;;;;;6.95;4.53;;;;;;;24.18;100.00;98721.88;5115978;28;20249;-80
2022/06/23 08:00:52;;;;;;;7.05;4.60;;;;;;;24.03;100.00;98729.28;5115788;28;20203;-80
2022/06/23 08:03:29;;;;;;;7.07;4.22;;;;;;;24.27;100.00;98739.66;5113936;28;20203;-80
2022/06/23 08:06:02;;;;;;;7.18;4.90;;;;;;;24.43;100.00;98733.16;5116381;28;20206;-81
2022/06/23 08:08:35;;;;;;;9.23;4.95;;;;;;;24.45;100.00;98731.09;5115108;28;20195;-80
2022/06/23 08:14:15;;;;;;;7.57;4.50;;;;;;;24.90;100.00;98736.13;5114190;28;20203;-80
2022/06/23 08:16:50;;;;;;;9.02;4.35;;;;;;;24.74;100.00;98732.72;5117776;27;20708;-80
2022/06/23 08:19:29;;;;;;;8.13;5.32;;;;;;;24.99;100.00;98727.63;5112568;28;20191;-80
2022/06/23 08:22:05;;;;;;;8.20;4.43;;;;;;;24.54;100.00;98734.47;5119808;27;20183;-80
2022/06/23 08:24:36;;;;;;;7.47;4.60;;;;;;;24.72;100.00;98725.84;5113566;28;20199;-80
2022/06/23 08:27:09;;;;;;;9.52;4.80;;;;;;;24.74;100.00;98732.72;5115377;28;20206;-79
2022/06/23 08:29:41;;;;;;;10.40;5.07;;;;;;;24.90;100.00;98717.16;5112454;28;20241;-80
2022/06/23 08:32:10;;;;;;;6.53;4.38;;;;;;;25.13;100.00;98720.44;5116184;28;20252;-80
2022/06/23 08:34:45;;;;;;;6.50;4.95;;;;;;;25.26;100.00;98725.06;5121355;27;20206;-81
2022/06/23 08:37:18;;;;;;;8.40;4.47;;;;;;;25.27;99.80;98722.16;5114205;28;20190;-81
2022/06/23 08:39:55;;;;;;;7.15;4.70;;;;;;;25.34;100.00;98714.88;5114194;28;20649;-81
2022/06/23 08:42:31;;;;;;;6.10;4.40;;;;;;;25.68;100.00;98713.13;5116760;28;20228;-80
2022/06/23 08:45:09;;;;;;;9.05;4.80;;;;;;;25.80;96.74;98711.47;5113757;28;20228;-80
2022/06/23 08:47:54;;;;;;;12.38;4.85;;;;;;;25.78;95.32;98708.16;5116996;27;20199;-81
2022/06/23 08:50:31;;;;;;;6.82;4.55;;;;;;;25.99;95.70;98706.28;5116222;28;20218;-80
2022/06/23 08:53:07;;;;;;;6.85;4.38;;;;;;;26.05;95.25;98698.13;5115780;28;20270;-80
2022/06/23 08:55:44;;;;;;;6.20;4.35;;;;;;;26.18;94.69;98700.03;5113310;28;20217;-80
2022/06/23 08:58:25;;;;;;;4.97;4.25;;;;;;;26.34;91.88;98693.31;5115767;28;20261;-81
2022/06/23 09:01:00;;;;;;;6.45;4.63;;;;;;;26.24;92.59;98694.56;5114921;28;20194;-80
2022/06/23 09:03:41;;;;;;;6.57;4.35;;;;;;;26.36;93.02;98691.22;5108522;28;20277;-81
2022/06/23 09:06:22;;;;;;;7.88;4.82;;;;;;;26.38;91.88;98691.88;5115830;28;20195;-81
2022/06/23 09:09:02;;;;;;;7.57;4.72;;;;;;;26.61;92.49;98694.97;5115474;28;20194;-80
2022/06/23 09:11:42;;;;;;;9.50;4.50;;;;;;;26.70;88.56;98688.25;5113844;28;20224;-80
2022/06/23 09:14:29;;;;;;;5.18;4.35;;;;;;;26.50;88.86;98690.19;5111157;28;20190;-80
2022/06/23 09:17:17;;;;;;;6.95;4.07;;;;;;;26.85;90.80;98693.44;5110877;28;20195;-80
2022/06/23 09:20:07;;;;;;;6.50;4.20;;;;;;;27.34;84.19;98681.97;5118225;27;20207;-81
2022/06/23 09:22:56;;;;;;;5.80;3.90;;;;;;;27.74;81.08;98684.47;5114926;28;20198;-80
2022/06/23 09:25:35;;;;;;;5.22;4.35;;;;;;;27.44;81.72;98677.94;5111625;28;20199;-81
2022/06/23 09:28:17;;;;;;;5.35;4.13;;;;;;;27.77;80.88;98675.00;5112230;28;20206;-81
2022/06/23 09:30:54;;;;;;;4.50;4.10;;;;;;;28.12;77.69;98675.38;5113265;28;20244;-80
2022/06/23 09:33:29;;;;;;;5.45;4.07;;;;;;;27.85;76.06;98675.59;5114231;28;20219;-80
2022/06/23 09:36:27;;;;;;;5.50;4.05;;;;;;;27.94;75.01;98679.69;5115181;27;20226;-81
2022/06/23 09:39:38;;;;;;;7.78;3.92;;;;;;;27.90;76.44;98670.31;5113093;28;20195;-80
2022/06/23 09:42:36;;;;;;;5.68;3.55;;;;;;;28.11;72.25;98670.97;5073756;28;20195;-80
2022/06/23 09:48:32;;;;;;;5.13;3.70;;;;;;;28.51;69.06;98675.00;5066168;28;20890;-79
2022/06/23 09:51:21;;;;;;;4.82;3.72;;;;;;;28.53;70.37;98672.06;5066561;28;20201;-80
2022/06/23 09:54:27;;;;;;;5.03;4.18;;;;;;;28.72;66.78;98672.91;5079235;27;20253;-80
2022/06/23 09:57:09;;;;;;;6.53;4.13;;;;;;;28.74;69.23;98666.16;5057898;27;20280;-80
2022/06/23 10:00:00;;;;;;;5.03;3.80;;;;;;;29.25;66.26;98666.84;5066433;27;20192;-81
2022/06/23 10:02:44;;;;;;;4.22;3.47;;;;;;;29.45;65.44;98661.09;5070715;27;20660;-80
2022/06/23 10:05:39;;;;;;;6.15;3.90;;;;;;;29.14;64.98;98662.97;5063478;28;20193;-81
2022/06/23 10:08:28;;;;;;;6.38;3.70;;;;;;;29.16;66.81;98657.31;5064290;27;20349;-80
2022/06/23 10:11:14;;;;;;;7.72;3.90;;;;;;;29.01;65.76;98649.50;5069351;28;20208;-80
2022/06/23 10:14:21;;;;;;;5.18;3.95;;;;;;;29.46;62.09;98649.13;5064532;28;20196;-80
2022/06/23 10:17:08;;;;;;;5.03;3.90;;;;;;;29.71;60.56;98651.69;5062580;27;20210;-80
2022/06/23 10:20:02;;;;;;;9.45;4.30;;;;;;;29.64;60.44;98652.63;5065850;28;20204;-80
2022/06/23 10:23:01;;;;;;;4.60;4.13;;;;;;;29.66;59.71;98651.56;5066154;28;20662;-80
2022/06/23 10:25:49;;;;;;;4.57;3.50;;;;;;;29.57;61.62;98640.16;5064185;28;20216;-80
2022/06/23 10:28:52;;;;;;;5.65;3.80;;;;;;;30.01;60.51;98636.06;5072083;27;20208;-80
2022/06/23 10:31:40;;;;;;;6.32;3.95;;;;;;;30.12;59.66;98634.47;5057279;28;20200;-81
2022/06/23 10:34:23;;;;;;;4.97;3.80;;;;;;;30.03;59.07;98638.56;5061876;28;20199;-80
2022/06/23 10:37:07;;;;;;;6.25;3.88;;;;;;;30.53;57.53;98633.47;5067458;28;20220;-80
2022/06/23 10:39:58;;;;;;;4.38;3.72;;;;;;;30.42;58.22;98623.38;5080226;27;20192;-80
2022/06/23 10:42:49;;;;;;;4.93;3.85;;;;;;;30.86;56.16;98621.06;5065825;28;20204;-80
2022/06/23 10:45:33;;;;;;;5.93;3.65;;;;;;;30.68;56.27;98616.56;5064877;28;20196;-80
2022/06/23 10:48:30;;;;;;;5.72;3.45;;;;;;;30.74;56.53;98621.09;5065403;28;20224;-80
2022/06/23 10:51:13;;;;;;;6.32;3.50;;;;;;;31.14;54.12;98612.03;5066509;28;20220;-81
2022/06/23 10:54:16;;;;;;;5.65;3.78;;;;;;;30.92;52.17;98609.97;5066088;28;20196;-80
2022/06/23 10:57:11;;;;;;;5.28;3.45;;;;;;;30.77;53.60;98596.81;5066051;28;20193;-80
2022/06/23 10:59:59;;;;;;;4.43;3.55;;;;;;;30.91;50.96;98591.09;5051563;28;20224;-81
2022/06/23 11:03:13;;;;;;;3.75;3.45;;;;;;;31.08;50.35;98591.97;5067586;27;20372;-80
2022/06/23 11:06:12;;;;;;;6.20;3.45;;;;;;;31.60;47.73;98592.66;5025667;27;20197;-81
2022/06/23 11:09:02;;;;;;;6.50;3.70;;;;;;;31.20;50.28;98584.56;5056909;27;20204;-80
2022/06/23 11:11:49;;;;;;;3.90;3.40;;;;;;;32.13;47.60;98582.25;5052094;28;20201;-81
2022/06/23 11:14:29;;;;;;;7.03;3.60;;;;;;;32.14;47.76;98579.28;5052316;28;20196;-81
2022/06/23 11:17:05;;;;;;;4.07;3.67;;;;;;;31.70;46.73;98586.50;5050917;28;20192;-80
2022/06/23 11:19:46;;;;;;;4.72;3.63;;;;;;;31.04;47.30;98586.13;5047760;28;20275;-81
2022/06/23 11:22:29;;;;;;;4.40;3.88;;;;;;;31.65;47.09;98580.94;5049214;28;20209;-80
2022/06/23 11:25:11;;;;;;;3.90;3.60;;;;;;;32.18;46.20;98577.69;5049545;28;20364;-81
2022/06/23 11:27:49;;;;;;;4.10;3.65;;;;;;;31.38;47.67;98583.50;5051774;28;20581;-80
2022/06/23 11:30:24;;;;;;;5.18;3.55;;;;;;;31.93;48.44;98581.97;5050579;28;20204;-81
2022/06/23 11:33:30;;;;;;;5.03;3.53;;;;;;;32.05;45.78;98572.59;5058043;27;20209;-81
2022/06/23 11:36:18;;;;;;;5.22;3.45;;;;;;;32.16;43.35;98579.03;5048747;28;20205;-80
2022/06/23 11:38:58;;;;;;;5.43;3.50;;;;;;;32.16;44.14;98574.38;5049617;28;20197;-81
2022/06/23 11:42:03;;;;;;;4.13;3.63;;;;;;;32.32;42.88;98572.69;5047492;28;20209;-81
2022/06/23 11:44:49;;;;;;;3.50;3.20;;;;;;;31.80;43.02;98567.53;5051913;28;20201;-81
2022/06/23 11:47:27;;;;;;;4.70;3.50;;;;;;;31.89;44.71;98568.78;5051653;28;20221;-81
2022/06/23 11:50:06;;;;;;;6.38;3.17;;;;;;;32.49;43.27;98552.63;5051493;28;20271;-81
2022/06/23 11:52:49;;;;;;;5.40;3.40;;;;;;;32.43;43.98;98560.81;5061255;27;20201;-81
2022/06/23 11:55:32;;;;;;;5.00;3.95;;;;;;;32.74;44.71;98561.19;5066408;27;20652;-81
2022/06/23 11:58:19;;;;;;;6.53;3.53;;;;;;;32.49;44.23;98563.59;5051257;28;20193;-82
2022/06/23 12:00:58;;;;;;;4.93;3.38;;;;;;;32.36;45.35;98559.31;5061418;27;20284;-80
2022/06/23 12:03:50;;;;;;;5.35;3.65;;;;;;;33.26;43.38;98560.66;5051592;28;20185;-81
2022/06/23 12:06:32;;;;;;;4.68;3.80;;;;;;;33.59;42.45;98551.38;5058627;27;20203;-81
2022/06/23 12:09:04;;;;;;;4.60;3.40;;;;;;;32.88;41.45;98548.72;5050991;28;20293;-80
2022/06/23 12:11:34;;;;;;;5.10;3.10;;;;;;;32.84;40.16;98546.78;5047790;28;20205;-81
2022/06/23 12:14:07;;;;;;;3.58;3.17;;;;;;;33.31;39.63;98528.59;5051417;28;20196;-81
2022/06/23 12:16:42;;;;;;;6.53;3.50;;;;;;;33.56;39.88;98528.00;5050074;28;20212;-81
2022/06/23 12:19:16;;;;;;;5.30;3.40;;;;;;;33.82;39.66;98519.94;5047175;28;20197;-81
2022/06/23 12:21:53;;;;;;;4.95;3.55;;;;;;;33.68;39.19;98513.22;5055589;28;20275;-81
2022/06/23 12:24:26;;;;;;;5.30;3.13;;;;;;;34.13;37.54;98519.06;5052624;28;20288;-81
2022/06/23 12:27:05;;;;;;;5.13;3.42;;;;;;;33.60;39.32;98528.31;5052924;28;20276;-82
2022/06/23 12:29:40;;;;;;;7.25;3.42;;;;;;;33.30;40.02;98523.38;5052691;28;20231;-80
2022/06/23 12:32:18;;;;;;;5.13;3.60;;;;;;;33.35;41.00;98526.13;5054230;28;20200;-81